Port Heiden, Alaska
Current Conditions -  °F | °C
As of 11:36 PM on Sunday 23 Nov 2014 (Local Time) from PAPH Reporting Station
Overcast Overcast  
Wind Chill: 34°   Ceiling: 100
Heat Index: 34°   Visibility: 0.25mi
Dew Point: 28°   Wind: 3mph
Humidity: 81%   Direction: 150°SSE
Pressure: 29.46"   Gusts: NA
Location:  56.95°N, 158.63°W
Report Text: PAPH 240836Z AUTO 15003KT 1/4SM OVC001 01/M02 A2946 RMK AO1
Loading
Personal Weather Stations






























Interactive Weather Map New forecast layout! Learn more

10-Day Weather Forecast

Advertisements
Track Severe Weather on mobile